News    GLOBAL    TV    HD    3D    Ultra HD    Radio    Data    Temp.FTA    [-]    بدون تشفير (مجانا)

الدليل الأوروبي للأقمار الصناعية
بحث عن القنوات:
Astra 2G (28.2°E) باقة 95
26.0E>
<30.5E

الموقع المداري القمر الصناعي Norad .ini News القنوات قنوات مجانية ( غيرمشفرة) Longitude Declination now Max declination Azimuth Elevation تحديث
28.2°E Astra 2E 39285 338 156 28.42°E 0.00° 0.07° N/A N/A 2024-02-26 16:32
28.2°E Astra 2F 38778 145 68 28.22°E 0.09° 0.10° N/A N/A 2024-02-27 07:50
28.2°E Astra 2G 40364 247 167 28.15°E 0.01° 0.06° N/A N/A 2024-02-26 14:56

عرض حسب: التشفير: عرض الوضع:

36 الإجابات - عرض حسب التردد - أهم آخر التحديثات: CET

Pos Satellite Frequence Pol Txp Beam Standard Modulation SR/FEC Network, bitrate NID TID
28.2°E 36Astra 2G 11552.75H95EuropeDVB-SQPSK22000 5/633.8 Mb/s 22095 KingOfSat charts update form
Craft Extra
المملكة المتحدة تسوق Sky Digital بدون تشفير (مجانا) 9537 2332 2333 eng  305  2332    2023-10-21 +
Jewellery Channel
المملكة المتحدة تسوق Sky Digital بدون تشفير (مجانا) 55100 2346 2347 eng  267  2346    2020-09-12 +
High Street TV 2 المملكة المتحدة تسوق Sky Digital بدون تشفير (مجانا) 55102 2352 2353 eng  273  2352    2018-02-01 +
High Street TV 3
المملكة المتحدة تسوق Sky Digital بدون تشفير (مجانا) 55104 2338 2339 eng  266  2338    2021-11-02 +
NTD TV (New Tang Dynasty TV) الو.م.أ عام Sky Digital بدون تشفير (مجانا) 55106 2306 2307 eng  257  2306    2021-02-22 +
Noor TV المملكة المتحدة دين Sky Digital بدون تشفير (مجانا) 55109 2355 2356 eng  264  2355    2015-08-19 +
Pitaara المملكة المتحدة Entertainment Sky Digital بدون تشفير (مجانا) 55110 2313 2323 eng  275  2313    2024-02-12 +
Clubland TV
المملكة المتحدة موسيقى Sky Digital بدون تشفير (مجانا) 55113 2557 2558 eng  256  2557    2015-08-19 +
Now Rock المملكة المتحدة موسيقى Sky Digital بدون تشفير (مجانا) 55114 2560 2561 eng  261  2560    2022-12-27 +
NDTV 24x7 الهند أخبار Sky Digital بدون تشفير (مجانا) 55116 2360 2361 eng  269  2360    2015-08-19 +

SonLife Broadcasting Network المملكة المتحدة دين Sky Digital بدون تشفير (مجانا) 55120 2331 2329 esp
2330 eng 
277  2331  2328  2021-10-30 +
Channel S المملكة المتحدة عام Sky Digital بدون تشفير (مجانا) 55142 2326 2324 eng  276  2326    2024-02-12 +
HUM Masala المملكة المتحدة Entertainment Sky Digital بدون تشفير (مجانا) 55146 2343 2342 eng  281  2343    2021-10-30 +
PTV Global باكستان عام Sky Digital بدون تشفير (مجانا) 55151 2335 2337 urd  259  2335    2020-04-07 +
Kanshi TV المملكة المتحدة Entertainment Sky Digital بدون تشفير (مجانا) 55155 2327 2345 eng  279  2327    2024-02-12 +
Hum Europe باكستان عام Sky Digital بدون تشفير (مجانا) 55181 2341 2340 urd  285  2341    2021-10-30 +
Deen TV المملكة المتحدة دين Sky Digital بدون تشفير (مجانا) 55185 2314 2315 eng  260  2314    2021-02-23 +
Capital XTRA Freesat
Sky Digital
بدون تشفير (مجانا) 9549   2320 eng  313  2320    2015-08-19
Radio X Freesat
Sky Digital
بدون تشفير (مجانا) 9559   2316 eng  318  2316    2015-09-14
Capital Freesat
Sky Digital
بدون تشفير (مجانا) 9560   2318 eng  319  2318    2016-09-26
Gold Freesat
Sky Digital
بدون تشفير (مجانا) 9561   2310  258  2310    2015-08-19
Khushkhabri Sky Digital بدون تشفير (مجانا) 9563   2336  320  2336    2015-08-19
Classic FM Freesat
Sky Digital
بدون تشفير (مجانا) 9570   2344 eng  263  2344    2015-08-19
LBC News Sky Digital بدون تشفير (مجانا) 55131   2334  282  2334    2020-01-09
Smooth Sky Digital بدون تشفير (مجانا) 55132   2312  270  2312    2015-08-19
Heart Dance Sky Digital بدون تشفير (مجانا) 55133   2311 eng  271  2311    2019-10-07
Virgin Radio إيطاليا موسيقى Sky Digital بدون تشفير (مجانا) 55135   2321 eng  278  2321    2019-01-08 +
TWR Sky Digital بدون تشفير (مجانا) 55136   2322  280  2322    2019-03-01
Heart 90s Sky Digital بدون تشفير (مجانا) 55139   2325 eng  265  2325    2019-11-13
Panjab Radio Sky Digital بدون تشفير (مجانا) 55186   2305  295  2305    2023-08-01
Sukh Sagar Sky Digital بدون تشفير (مجانا) 55187   2308  296  2308    2023-08-01
BFBS Radio Sky Digital بدون تشفير (مجانا) 55188   2309  297  2309    2023-08-01
LBC Sky Digital بدون تشفير (مجانا) 55189   2317  298  2317    2023-08-02
Heart Sky Digital بدون تشفير (مجانا) 55190   2319  299  2319    2023-08-02
Heart 80s Sky Digital بدون تشفير (مجانا) 55191   2350  300  2350    2023-08-02
talkSPORT Sky Digital بدون تشفير (مجانا) 55198   2348 eng  283  2348    2024-02-12

Detailed transponder stream properties (11552.75 H)

SID Ident. PID Format Colorimetry Width Height Aspect Ratio Frame rate
Sampling rate
Bitrate mode Bitrate Scan type تحديث
9537 2332 MPEG Video Main, Main 4:2:0 544 576 1.778 25.000 FPS VBR Interlaced 2024-02-27
9537 2333 MPEG Audio, Layer 22 channels 48000 CBR 128000 2024-02-27
9549 2320 MPEG Audio, Layer 22 channels 48000 CBR 160000 2024-02-27
9559 2316 MPEG Audio, Layer 22 channels 48000 CBR 160000 2024-02-27
9560 2318 MPEG Audio, Layer 22 channels 48000 CBR 160000 2024-02-27
9561 2310 MPEG Audio, Layer 22 channels 48000 CBR 160000 2024-02-27
9563 2336 MPEG Audio, Layer 21 channel 48000 CBR 96000 2024-02-27
9570 2344 MPEG Audio, Layer 22 channels 48000 CBR 192000 2024-02-27
55100 2346 MPEG Video Main, Main 4:2:0 720 576 1.778 25.000 FPS VBR Interlaced 2024-02-27
55100 2347 MPEG Audio, Layer 22 channels 48000 CBR 192000 2024-02-27
55102 2352 MPEG Video Main, Main 4:2:0 544 576 1.778 25.000 FPS VBR Interlaced 2024-02-27
55102 2353 MPEG Audio, Layer 22 channels 48000 CBR 128000 2024-02-27
55104 2338 MPEG Video Main, Main 4:2:0 544 576 1.778 25.000 FPS VBR Interlaced 2024-02-27
55104 2339 MPEG Audio, Layer 22 channels 48000 CBR 128000 2024-02-27
55106 2306 MPEG Video Main, Main 4:2:0 544 576 1.778 25.000 FPS VBR Interlaced 2024-02-27
55106 2307 MPEG Audio, Layer 22 channels 48000 CBR 128000 2024-02-27
55109 2355 MPEG Video Main, Main 4:2:0 544 576 1.778 25.000 FPS VBR Interlaced 2024-02-27
55109 2356 MPEG Audio, Layer 22 channels 48000 CBR 128000 2024-02-27
55110 2313 MPEG Video Main, Main 4:2:0 544 576 1.778 25.000 FPS VBR Interlaced 2024-02-27
55110 2323 MPEG Audio, Layer 22 channels 48000 CBR 128000 2024-02-27
55113 2557 MPEG Video Main, Main 4:2:0 544 576 1.778 25.000 FPS VBR Interlaced 2024-02-27
55113 2558 MPEG Audio, Layer 22 channels 48000 CBR 192000 2024-02-27
55114 2560 MPEG Video Main, Main 4:2:0 544 576 1.778 25.000 FPS VBR Interlaced 2024-02-27
55114 2561 MPEG Audio, Layer 22 channels 48000 CBR 192000 2024-02-27
55116 2360 MPEG Video Main, Main 4:2:0 544 576 1.333 25.000 FPS VBR Interlaced 2024-02-27
55116 2361 MPEG Audio, Layer 22 channels 48000 CBR 128000 2024-02-27
55120 2328 Teletext 2024-02-27
55120 2329 MPEG Audio, Layer 22 channels 48000 CBR 128000 2024-02-27
55120 2330 MPEG Audio, Layer 22 channels 48000 CBR 128000 2024-02-27
55120 2331 MPEG Video Main, Main 4:2:0 544 576 1.778 25.000 FPS VBR Interlaced 2024-02-27
55131 2334 MPEG Audio, Layer 22 channels 48000 CBR 128000 2024-02-27
55132 2312 MPEG Audio, Layer 22 channels 48000 CBR 160000 2024-02-27
55133 2311 MPEG Audio, Layer 22 channels 48000 CBR 160000 2024-02-27
55135 2321 MPEG Audio, Layer 22 channels 48000 CBR 192000 2024-02-27
55136 2322 MPEG Audio, Layer 21 channel 48000 CBR 64000 2024-02-27
55139 2325 MPEG Audio, Layer 22 channels 48000 CBR 160000 2024-02-27
55142 2324 MPEG Audio, Layer 22 channels 48000 CBR 128000 2024-02-27
55142 2326 MPEG Video Main, Main 4:2:0 544 576 1.778 25.000 FPS VBR Interlaced 2024-02-27
55146 2342 MPEG Audio, Layer 22 channels 48000 CBR 192000 2024-02-27
55146 2343 MPEG Video Main, Main 4:2:0 544 576 1.333 25.000 FPS VBR Interlaced 2024-02-27
55151 2335 MPEG Video Main, Main 4:2:0 544 576 1.333 25.000 FPS VBR Interlaced 2024-02-27
55151 2337 MPEG Audio, Layer 22 channels 48000 CBR 128000 2024-02-27
55155 2327 MPEG Video Main, Main 4:2:0 544 576 1.778 25.000 FPS VBR Interlaced 2024-02-27
55155 2345 MPEG Audio, Layer 22 channels 48000 CBR 192000 2024-02-27
55181 2340 MPEG Audio, Layer 22 channels 48000 CBR 128000 2024-02-27
55181 2341 MPEG Video Main, Main 4:2:0 544 576 1.333 25.000 FPS VBR Interlaced 2024-02-27
55185 2314 MPEG Video Main, Main 4:2:0 720 576 1.778 25.000 FPS VBR Interlaced 2024-02-27
55185 2315 MPEG Audio, Layer 22 channels 48000 CBR 128000 2024-02-27
55186 2305 MPEG Audio, Layer 21 channel 48000 CBR 128000 2024-02-27
55187 2308 MPEG Audio, Layer 21 channel 48000 CBR 96000 2024-02-27
55188 2309 MPEG Audio, Layer 22 channels 48000 CBR 128000 2024-02-27
55189 2317 MPEG Audio, Layer 22 channels 48000 CBR 128000 2024-02-27
55190 2319 MPEG Audio, Layer 22 channels 48000 CBR 160000 2024-02-27
55191 2350 MPEG Audio, Layer 22 channels 48000 CBR 160000 2024-02-27
55198 2348 MPEG Audio, Layer 21 channel 32000 CBR 80000 2024-02-27

تحديثاتك/اقتراحاتك

مفتاح الالوان و الرموز

8K - Ultra HD

4K - Ultra HD

وضوح عالي

شاشة كبيرة

     

Video: MPEG-4/AVC/H-264

     

Video: MPEG-H/HEVC/H-265

     

Video: MPEG-I/VVC/H-266

     

بدون تشفير (مجانا)

     

Encrypted

يعرض لقطة صورة

3D

بث صور على المباشر

+

غير المفتاح

     

DVB-S

     

DVB-S2

     

DVB-S2X


التخصيصات - الرئيسية - أخبار - الاقمار - الاحزمة - القنوات - بحث - الحزمة - الفيد - سلة المحذوفات - تحديثاتك/اقتراحاتك

All contents on this site are protected by copyright and owned by KingOfSat, except contents shown in some screenshots that belong to their respective owners. Screenshots are only proposed to help illustrating, identifying and promoting corresponding TV channels. For all questions/remarks related to copyright, please contact KingOfSat webmaster.